Dane County Regional Truax Field
KMSN : now visible

Airfield :











YOU CAN JOIN US ON...

 
LOGIN :

Register | Disclaimer

   EN    FR    IT 

 









Legend :    VFR   Marginal VFR   IFR   Intensive IFR   Very Intensive IFR
Visi :
Ceiling :
>= 8 km
>= 3000ft
5 to 8 km
1000 to 3000 ft
1500m to 5 km
500 to 1000 ft
800 to 1500m
200 to 500 ft
< 800m
< 200 ft
Symbols :   Thunderstorms  Fog  Heavy snow  Heavy precipitations  Wind > 20 kt






- Airport Elevation : 887 ft
- IATA code : MSN


KMSN - Dane County Regional Truax Field

CURRENT METAR :
  • 122253Z 23004KT 10SM FEW250 M09/M18 A3038 RMK AO2 SLP308 T10941183

EXPIRED METARs :
  • 122153Z VRB05KT 10SM FEW250 M08/M18 A3039 RMK AO2 SLP311 T10831183
  • 122053Z VRB05KT 10SM FEW250 M08/M19 A3041 RMK AO2 SLP317 T10831194 56020

TAF KMSN
Valid from the 12 at 18:00 until the 13 at 18:00 UTC


121720Z 1218/1318 31010KT P6SM SKC
FM122200 25006KT P6SM SKC
FM130100 21005KT P6SM SCT150
FM130800 18010KT P6SM BKN120
FM131300 18012G20KT P6SM BKN100



MET'MAP, your aeronautical weather chart ! - Copyright ORBIFLY December 2007 - Disclaimer

ORBIFLY MET'MAP TEAM :

Programming & Development : Alexandra Zaïnal
Concept & Development : Baudouin d'Aumeries
Co-Development & Prog : Marc-Olivier Méhu
Technical & hardware support : Manuel Goepfert

Contact : metmap@orbifly.com




SOURCES & CREDITS :

   NOAA       Earth
Advisory